Accueil
METAR-TAF:

METAR-TAF

Aéroports :

Aéroport de Venise-Marco-Polo

Venise, Italie

latitude: 45-30N, longitude: 012-20E, altitude: 2 m

Observation

Le bulletin a été fait il y a 39 minutes, à 18:20 UTC
Vent 7 kt de est/nord-est
Température 16°C
Humidité 77%
Pression 1009 hPa
Visibilité 10 km ou plus
Quelques nuages à une hauteur de 6500 ft

METAR: LIPZ 071820Z 07007KT 9999 FEW065 16/12 Q1009 NOSIG

Heure: 20:59 (18:59 UTC)

Prévision

Le bulletin a été fait il y a 1 heure et 59 minutes, à 17:00 UTC
Prévision valable du 07 à 18 UTC au 08 à 24 UTC
Vent 15 kt de nord-est
Visibilité 10 km ou plus
Quelques nuages à une hauteur de 3000 ft
Evoluant progressivement
du 08 à 10 UTC au 08 à 12 UTC
Vent 10 kt de sud/sud-est
Evoluant progressivement
du 08 à 17 UTC au 08 à 19 UTC
Vent 5 kt de direction variable

TAF: LIPZ 071700Z 0718/0824 05015KT 9999 FEW030 BECMG 0810/0812 16010KT BECMG 0817/0819 VRB05KT

Observations et prévisions météorologiques de plus de 4000 aéroports (messages METAR et TAF).

Les stations disponibles sont représentées par des disques jaunes et rouges sur la carte.

Passer la souris dessus pour voir le nom de la station.

Cliquer dessus pour voir les observations et prévisions météorologiques.

Pour changer de carte: cliquez sur les boutons verts avec une croix noire pour zoomer, sur le bouton vert avec un tiret pour effectuer un zoom arrière, ou sur les flèches vertes pour les cartes adjacentes.


METAR-TAF: